Time;durP1;ratioP1;P1;durP2;ratioP2;P2;SDS_P1;SDS_P2;PMS_P1;PMS_P2;Temp;Humidity;BMP_temperature;BMP_pressure;BME280_temperature;BME280_humidity;BME280_pressure;Samples;Min_cycle;Max_cycle;Signal;HPM_P1;HPM_P2
2022/10/17 00:00:38;;;;;;;12.63;8.17;;;;;;;10.79;87.39;95684.13;5030708;28;20225;-58
2022/10/17 00:03:04;;;;;;;14.00;9.37;;;;;;;10.88;87.26;95686.88;5030962;28;20186;-61
2022/10/17 00:05:29;;;;;;;11.67;8.03;;;;;;;10.92;86.52;95705.25;5012967;28;20245;-59
2022/10/17 00:07:55;;;;;;;14.60;8.50;;;;;;;11.02;86.07;95707.97;5030384;28;20225;-60
2022/10/17 00:10:21;;;;;;;9.80;7.07;;;;;;;10.69;86.52;95700.94;5030287;28;20746;-60
2022/10/17 00:12:46;;;;;;;10.23;6.30;;;;;;;10.61;86.86;95685.38;5031517;28;20226;-60
2022/10/17 00:15:21;;;;;;;13.13;6.20;;;;;;;10.64;85.17;95721.59;5013009;28;20210;-59
2022/10/17 00:17:47;;;;;;;9.30;4.27;;;;;;;10.55;81.96;95772.25;5030423;28;20190;-58
2022/10/17 00:20:14;;;;;;;6.63;3.23;;;;;;;10.32;82.37;95768.72;5030417;28;20229;-57
2022/10/17 00:22:39;;;;;;;4.37;3.37;;;;;;;10.05;83.64;95729.81;5030682;28;20245;-60
2022/10/17 00:25:05;;;;;;;6.37;3.43;;;;;;;9.86;84.83;95719.22;5030382;28;20637;-61
2022/10/17 00:27:34;;;;;;;5.00;3.20;;;;;;;9.63;86.50;95689.44;5029918;28;20210;-63
2022/10/17 00:29:59;;;;;;;4.37;3.53;;;;;;;9.58;87.19;95684.63;5030199;28;20276;-61
2022/10/17 00:32:25;;;;;;;6.37;3.80;;;;;;;9.55;87.87;95689.09;5030404;28;20178;-58
2022/10/17 00:34:50;;;;;;;4.47;3.50;;;;;;;9.41;88.29;95676.47;5033228;28;20208;-65
2022/10/17 00:37:16;;;;;;;4.20;3.33;;;;;;;9.38;89.21;95680.03;5032862;28;20186;-61
2022/10/17 00:39:41;;;;;;;6.17;3.37;;;;;;;9.31;90.20;95671.97;5032228;28;20581;-60
2022/10/17 00:42:11;;;;;;;7.43;4.00;;;;;;;9.38;89.78;95676.66;5032339;28;20533;-61
2022/10/17 00:44:40;;;;;;;8.73;3.80;;;;;;;9.37;89.41;95686.03;5016037;28;20214;-61
2022/10/17 00:47:12;;;;;;;4.57;3.50;;;;;;;9.18;91.35;95673.69;5033626;28;20233;-61
2022/10/17 00:49:39;;;;;;;7.30;3.73;;;;;;;9.28;91.36;95682.34;5015493;28;20711;-60
2022/10/17 00:52:12;;;;;;;5.63;3.47;;;;;;;9.48;91.30;95692.94;5033648;28;20684;-59
2022/10/17 00:54:42;;;;;;;11.17;3.27;;;;;;;9.62;90.43;95713.16;5033834;28;20751;-61
2022/10/17 00:57:09;;;;;;;5.20;3.90;;;;;;;9.51;90.42;95692.75;5033442;28;20198;-60
2022/10/17 00:59:38;;;;;;;3.90;3.50;;;;;;;9.63;91.26;95695.31;5033499;28;20648;-58
2022/10/17 01:02:05;;;;;;;5.00;3.90;;;;;;;9.62;89.97;95716.53;5032944;28;20252;-58
2022/10/17 01:04:31;;;;;;;4.30;3.50;;;;;;;9.72;90.96;95702.34;5033079;28;20199;-58
2022/10/17 01:06:57;;;;;;;6.67;3.00;;;;;;;9.70;90.77;95704.16;5033068;28;20210;-58
2022/10/17 01:09:24;;;;;;;5.37;3.87;;;;;;;9.73;91.20;95698.91;5033311;28;20225;-60
2022/10/17 01:11:59;;;;;;;5.77;3.47;;;;;;;9.82;91.50;95703.38;5015909;28;20216;-58
2022/10/17 01:14:46;;;;;;;6.93;4.33;;;;;;;9.92;90.75;95708.66;5015199;28;20280;-61
2022/10/17 01:17:44;;;;;;;5.43;3.83;;;;;;;9.82;90.30;95692.38;5015088;28;20202;-61
2022/10/17 01:20:37;;;;;;;5.27;4.30;;;;;;;10.13;89.00;95730.97;5031703;28;20214;-59
2022/10/17 01:23:36;;;;;;;9.53;3.87;;;;;;;10.16;89.75;95726.59;5032660;28;20293;-58
2022/10/17 01:26:01;;;;;;;6.23;4.20;;;;;;;10.23;89.13;95740.53;5032991;28;20240;-62
2022/10/17 01:28:45;;;;;;;7.20;3.60;;;;;;;10.24;88.69;95739.63;5032895;28;20700;-57
2022/10/17 01:31:13;;;;;;;7.20;4.60;;;;;;;10.20;88.71;95735.66;5033070;28;20233;-62
2022/10/17 01:34:19;;;;;;;6.03;4.57;;;;;;;10.24;87.64;95744.72;5032997;28;20186;-61
2022/10/17 01:36:58;;;;;;;9.73;5.13;;;;;;;10.17;87.31;95762.06;5032977;28;20209;-59
2022/10/17 01:39:38;;;;;;;8.67;4.73;;;;;;;10.23;87.22;95763.41;5014659;28;20218;-58
2022/10/17 01:42:17;;;;;;;6.10;4.50;;;;;;;10.19;86.63;95779.75;5032684;28;20267;-59
2022/10/17 01:44:51;;;;;;;7.87;4.20;;;;;;;10.09;87.44;95757.47;5032217;28;20733;-60
2022/10/17 01:47:20;;;;;;;5.57;4.40;;;;;;;10.16;86.79;95769.81;5032580;28;20310;-59
2022/10/17 01:49:49;;;;;;;5.53;4.00;;;;;;;10.05;86.75;95773.81;5032599;28;20213;-58
2022/10/17 01:52:22;;;;;;;5.23;3.90;;;;;;;9.85;87.07;95769.22;5032488;28;20189;-62
2022/10/17 01:54:54;;;;;;;6.00;4.00;;;;;;;9.86;87.75;95755.59;5032668;28;20288;-61
2022/10/17 01:57:34;;;;;;;6.33;4.33;;;;;;;9.68;89.87;95725.47;5014430;28;20203;-61
2022/10/17 02:00:03;;;;;;;5.03;4.17;;;;;;;9.84;89.81;95742.19;5014260;28;20213;-62
2022/10/17 02:02:30;;;;;;;6.00;4.93;;;;;;;9.85;88.47;95760.78;5032025;28;20190;-61
2022/10/17 02:04:56;;;;;;;7.07;4.30;;;;;;;9.70;88.64;95760.00;5014871;28;20571;-61
2022/10/17 02:07:21;;;;;;;6.00;4.57;;;;;;;9.45;89.70;95738.81;5014248;28;20246;-61
2022/10/17 02:09:47;;;;;;;6.60;4.30;;;;;;;9.34;90.96;95726.81;5014146;28;20742;-61
2022/10/17 02:12:33;;;;;;;8.17;4.87;;;;;;;9.22;92.10;95717.41;5031916;28;20200;-62
2022/10/17 02:15:08;;;;;;;4.53;3.87;;;;;;;9.08;93.53;95709.84;5014379;28;20242;-61
2022/10/17 02:17:56;;;;;;;7.87;3.57;;;;;;;9.04;93.45;95708.41;5031837;28;20668;-62
2022/10/17 02:20:27;;;;;;;6.70;4.00;;;;;;;8.97;94.36;95707.16;5032058;28;20213;-61
2022/10/17 02:23:14;;;;;;;6.17;4.30;;;;;;;8.85;96.07;95707.91;5031871;28;20194;-61
2022/10/17 02:25:50;;;;;;;5.60;4.57;;;;;;;8.84;95.42;95722.31;5031665;28;20218;-62
2022/10/17 02:28:19;;;;;;;4.60;3.90;;;;;;;8.86;95.64;95727.28;5031698;28;20209;-62
2022/10/17 02:30:56;;;;;;;4.80;4.10;;;;;;;8.80;96.53;95715.00;5013678;28;20305;-62
2022/10/17 02:33:46;;;;;;;4.53;3.57;;;;;;;8.77;95.79;95728.66;5031908;28;20221;-58
2022/10/17 02:36:17;;;;;;;10.13;5.70;;;;;;;8.85;96.20;95738.31;5031937;28;20194;-58
2022/10/17 02:38:44;;;;;;;5.03;4.17;;;;;;;8.70;97.26;95724.88;5013821;28;20190;-58
2022/10/17 02:41:14;;;;;;;7.97;4.30;;;;;;;8.75;96.14;95737.25;5031748;28;20186;-59
2022/10/17 02:43:44;;;;;;;5.10;4.20;;;;;;;8.63;97.24;95732.91;5031545;28;20185;-58
2022/10/17 02:46:11;;;;;;;8.30;4.27;;;;;;;8.68;96.80;95743.63;5032123;28;20189;-59
2022/10/17 02:48:43;;;;;;;5.20;4.03;;;;;;;8.65;98.32;95744.59;5031376;28;20221;-58
2022/10/17 02:51:20;;;;;;;12.03;7.27;;;;;;;8.84;96.89;95774.75;5031722;28;20208;-58
2022/10/17 02:53:48;;;;;;;7.30;4.47;;;;;;;8.70;97.51;95759.53;5030055;28;20296;-58
2022/10/17 02:56:18;;;;;;;7.67;4.70;;;;;;;8.89;97.75;95770.19;5031523;28;20252;-57
2022/10/17 02:58:49;;;;;;;6.57;4.30;;;;;;;8.90;96.67;95776.91;5031473;28;20255;-61
2022/10/17 03:01:16;;;;;;;7.20;4.40;;;;;;;8.94;97.20;95776.66;5014243;28;20682;-57
2022/10/17 03:03:41;;;;;;;6.73;4.10;;;;;;;9.12;96.24;95789.94;5031356;28;20244;-58
2022/10/17 03:06:07;;;;;;;6.63;4.40;;;;;;;9.09;96.94;95788.38;5031357;28;20664;-58
2022/10/17 03:08:33;;;;;;;5.80;4.07;;;;;;;9.23;95.84;95800.25;5013284;28;20221;-58
2022/10/17 03:10:58;;;;;;;5.93;4.00;;;;;;;9.35;94.97;95817.25;5030977;28;20769;-61
2022/10/17 03:13:23;;;;;;;5.63;4.33;;;;;;;9.35;94.14;95814.72;5030703;28;20724;-61
2022/10/17 03:15:49;;;;;;;5.87;3.60;;;;;;;9.46;93.44;95835.16;5031427;28;20707;-61
2022/10/17 03:18:14;;;;;;;5.77;4.40;;;;;;;9.57;92.33;95835.34;5031336;28;20205;-61
2022/10/17 03:20:40;;;;;;;6.67;4.83;;;;;;;9.50;92.63;95826.47;5032124;28;20210;-61
2022/10/17 03:23:05;;;;;;;6.93;4.23;;;;;;;9.57;92.91;95829.44;5031406;28;20182;-59
2022/10/17 03:25:30;;;;;;;6.93;4.30;;;;;;;9.55;92.35;95832.06;5030968;28;20770;-60
2022/10/17 03:28:00;;;;;;;6.90;4.87;;;;;;;9.53;92.36;95826.28;5031004;28;20237;-61
2022/10/17 03:30:26;;;;;;;8.80;4.70;;;;;;;9.61;91.36;95838.50;5030730;28;20704;-61
2022/10/17 03:32:52;;;;;;;5.87;4.53;;;;;;;9.38;93.57;95811.97;5031319;28;20194;-59
2022/10/17 03:35:17;;;;;;;7.30;4.53;;;;;;;9.35;94.59;95808.81;5031118;28;20221;-58
2022/10/17 03:37:43;;;;;;;5.90;4.83;;;;;;;9.42;93.31;95828.66;5030771;28;20712;-58
2022/10/17 03:40:10;;;;;;;5.47;4.80;;;;;;;9.62;91.23;95851.09;5031817;28;20249;-60
2022/10/17 03:42:36;;;;;;;5.80;4.50;;;;;;;9.39;91.14;95836.47;5013138;28;20197;-61
2022/10/17 03:45:02;;;;;;;5.57;4.30;;;;;;;9.35;93.03;95829.13;5012944;28;20225;-61
2022/10/17 03:47:28;;;;;;;7.27;5.30;;;;;;;9.05;93.69;95816.59;5033075;28;20766;-61
2022/10/17 03:49:53;;;;;;;7.43;4.50;;;;;;;9.15;92.95;95841.28;5030317;28;20300;-61
2022/10/17 03:52:19;;;;;;;8.47;4.80;;;;;;;8.98;93.25;95828.00;5030888;28;20240;-58
2022/10/17 03:54:44;;;;;;;6.17;4.33;;;;;;;8.88;95.31;95799.00;5030389;28;20712;-59
2022/10/17 03:57:10;;;;;;;5.40;4.57;;;;;;;9.11;94.33;95827.16;5030423;28;20192;-59
2022/10/17 03:59:35;;;;;;;7.87;4.43;;;;;;;8.90;93.88;95823.38;5012710;28;20210;-58
2022/10/17 04:02:01;;;;;;;8.37;5.20;;;;;;;8.96;94.27;95823.00;5031116;28;20194;-60
2022/10/17 04:04:26;;;;;;;8.50;5.13;;;;;;;8.90;95.09;95813.25;5030341;28;20202;-61
2022/10/17 04:06:52;;;;;;;5.87;4.53;;;;;;;8.81;95.60;95802.81;5012478;28;20281;-61
2022/10/17 04:09:17;;;;;;;7.67;5.70;;;;;;;8.78;96.05;95805.53;5051058;23;20242;-61
2022/10/17 04:11:42;;;;;;;9.63;4.80;;;;;;;8.78;95.67;95816.50;5074702;28;20659;-60
2022/10/17 04:14:09;;;;;;;8.60;5.60;;;;;;;8.83;94.14;95827.16;5073692;28;20205;-60
2022/10/17 04:16:34;;;;;;;6.13;5.17;;;;;;;8.78;95.18;95828.34;5073680;28;20246;-62
2022/10/17 04:19:00;;;;;;;10.20;4.77;;;;;;;8.48;98.15;95783.59;5073954;28;20244;-62
2022/10/17 04:21:26;;;;;;;8.17;4.17;;;;;;;8.44;96.40;95814.31;5074135;28;20193;-59
2022/10/17 04:23:58;;;;;;;7.53;4.93;;;;;;;8.24;97.42;95801.94;5073905;28;20601;-61
2022/10/17 04:26:25;;;;;;;6.73;4.63;;;;;;;8.05;98.81;95792.03;5056082;28;20180;-60
2022/10/17 04:28:51;;;;;;;6.70;5.20;;;;;;;7.94;100.00;95809.53;5074109;28;20255;-61
2022/10/17 04:31:18;;;;;;;7.97;4.60;;;;;;;7.94;100.00;95809.53;5074321;28;20177;-62
2022/10/17 04:33:46;;;;;;;5.77;4.83;;;;;;;7.69;100.00;95804.22;5075132;28;20667;-59
2022/10/17 04:36:14;;;;;;;8.90;4.23;;;;;;;7.55;100.00;95792.28;5074636;28;20226;-62
2022/10/17 04:38:40;;;;;;;9.80;5.10;;;;;;;7.65;100.00;95816.19;5074703;28;20222;-61
2022/10/17 04:41:09;;;;;;;8.37;4.87;;;;;;;7.62;100.00;95818.06;5073215;28;20229;-61
2022/10/17 04:43:37;;;;;;;9.73;5.27;;;;;;;7.72;100.00;95820.91;5073238;28;20200;-61
2022/10/17 04:46:05;;;;;;;7.67;5.07;;;;;;;7.70;100.00;95825.25;5073122;28;20746;-61
2022/10/17 04:48:31;;;;;;;5.60;4.87;;;;;;;7.82;100.00;95830.47;5072857;28;20208;-62
2022/10/17 04:51:01;;;;;;;8.80;5.50;;;;;;;7.77;100.00;95827.38;5073430;28;20733;-60
2022/10/17 04:53:29;;;;;;;9.93;6.93;;;;;;;7.91;100.00;95845.16;5054963;28;20280;-61
2022/10/17 04:56:00;;;;;;;6.97;5.50;;;;;;;7.93;100.00;95830.69;5072954;28;20271;-61
2022/10/17 04:58:28;;;;;;;6.17;5.10;;;;;;;7.87;100.00;95847.94;5072877;28;20192;-61
2022/10/17 05:00:54;;;;;;;6.17;4.80;;;;;;;7.79;100.00;95845.00;5073205;28;20193;-61
2022/10/17 05:03:20;;;;;;;6.97;4.47;;;;;;;7.60;100.00;95846.00;5073148;28;20188;-61
2022/10/17 05:05:45;;;;;;;5.40;4.80;;;;;;;7.74;100.00;95822.47;5073023;28;20670;-62
2022/10/17 05:08:11;;;;;;;9.87;5.40;;;;;;;7.97;100.00;95844.81;5072837;28;20530;-62
2022/10/17 05:10:38;;;;;;;11.10;5.40;;;;;;;8.01;100.00;95858.94;5073022;28;20351;-60
2022/10/17 05:13:04;;;;;;;8.50;4.87;;;;;;;8.11;100.00;95867.66;5072905;28;20678;-60
2022/10/17 05:15:29;;;;;;;7.90;5.30;;;;;;;8.10;100.00;95888.78;5072815;28;20234;-61
2022/10/17 05:17:55;;;;;;;9.03;4.90;;;;;;;7.86;100.00;95877.47;5071350;28;20671;-62
2022/10/17 05:20:21;;;;;;;7.00;5.43;;;;;;;7.83;100.00;95877.66;5071695;28;20709;-60
2022/10/17 05:22:46;;;;;;;11.90;6.87;;;;;;;7.86;100.00;95872.41;5072748;28;20181;-61
2022/10/17 05:25:12;;;;;;;8.13;5.70;;;;;;;8.04;100.00;95886.59;5072657;28;20216;-61
2022/10/17 05:27:38;;;;;;;9.37;6.13;;;;;;;8.03;100.00;95882.47;5072334;28;20288;-62
2022/10/17 05:30:04;;;;;;;9.73;5.50;;;;;;;8.22;100.00;95895.72;5072599;28;20620;-61
2022/10/17 05:32:30;;;;;;;9.37;6.07;;;;;;;8.28;100.00;95899.69;5072309;28;20238;-61
2022/10/17 05:34:55;;;;;;;13.40;6.57;;;;;;;8.18;100.00;95881.59;5072315;28;20213;-61
2022/10/17 05:37:20;;;;;;;11.23;7.03;;;;;;;8.34;100.00;95904.41;5072279;28;20243;-58
2022/10/17 05:39:46;;;;;;;10.33;6.30;;;;;;;8.44;100.00;95920.72;5071521;28;20308;-59
2022/10/17 05:42:11;;;;;;;11.97;5.73;;;;;;;8.32;100.00;95901.94;5070301;28;20200;-59
2022/10/17 05:44:38;;;;;;;10.27;6.90;;;;;;;8.35;100.00;95891.66;5072350;28;20243;-59
2022/10/17 05:47:04;;;;;;;10.13;7.37;;;;;;;8.65;100.00;95916.97;5072362;28;20260;-61
2022/10/17 05:49:29;;;;;;;11.50;7.23;;;;;;;8.73;100.00;95924.94;5072215;28;20706;-60
2022/10/17 05:51:55;;;;;;;12.10;6.97;;;;;;;8.77;100.00;95928.13;5072629;28;20189;-61
2022/10/17 05:54:21;;;;;;;11.47;7.10;;;;;;;8.75;99.27;95942.59;5072626;28;20208;-60
2022/10/17 05:56:51;;;;;;;16.30;8.20;;;;;;;8.92;98.19;95952.59;5072668;28;20266;-59
2022/10/17 05:59:16;;;;;;;16.93;7.67;;;;;;;8.95;99.07;95949.88;5072207;28;20697;-58
2022/10/17 06:01:42;;;;;;;15.17;7.23;;;;;;;9.01;99.28;95952.88;5072470;28;20197;-60
2022/10/17 06:04:07;;;;;;;11.60;7.17;;;;;;;9.20;97.18;95968.69;5072088;28;20197;-61
2022/10/17 06:06:36;;;;;;;18.13;7.83;;;;;;;9.02;98.12;95954.53;5070894;28;20189;-61
2022/10/17 06:09:02;;;;;;;9.23;7.37;;;;;;;9.08;98.32;95954.19;5070730;28;20219;-61
2022/10/17 06:11:27;;;;;;;8.30;6.30;;;;;;;9.20;98.36;95961.06;5072198;28;20192;-61
2022/10/17 06:13:52;;;;;;;12.50;6.67;;;;;;;9.42;94.17;96002.94;5071942;28;20277;-62
2022/10/17 06:16:18;;;;;;;11.47;7.27;;;;;;;9.41;95.06;95989.47;5071870;28;20589;-61
2022/10/17 06:18:43;;;;;;;10.80;7.40;;;;;;;9.51;94.86;96007.50;5071697;28;20177;-60
2022/10/17 06:21:10;;;;;;;12.10;7.20;;;;;;;9.37;95.56;95994.81;5072059;28;20216;-60
2022/10/17 06:23:36;;;;;;;14.90;8.60;;;;;;;9.54;93.62;96022.53;5053653;28;20738;-61
2022/10/17 06:26:03;;;;;;;14.93;8.63;;;;;;;9.52;94.38;96009.13;5070510;23;20316;-61
2022/10/17 06:28:29;;;;;;;14.00;8.67;;;;;;;9.69;94.97;96014.03;5051794;28;20236;-59
2022/10/17 06:30:54;;;;;;;13.20;8.70;;;;;;;9.63;94.98;96009.31;5051117;28;20652;-59
2022/10/17 06:33:20;;;;;;;14.70;8.10;;;;;;;9.69;95.17;96012.31;5051528;28;20193;-58
2022/10/17 06:35:53;;;;;;;13.73;8.83;;;;;;;9.81;94.93;96019.19;5051596;28;20220;-59
2022/10/17 06:38:18;;;;;;;21.17;10.23;;;;;;;9.92;93.40;96034.59;5051475;28;20251;-61
2022/10/17 06:40:44;;;;;;;19.30;11.27;;;;;;;10.02;92.88;96045.00;5051627;28;20613;-60
2022/10/17 06:43:09;;;;;;;17.37;10.43;;;;;;;10.14;92.20;96055.28;5033730;28;20231;-61
2022/10/17 06:45:37;;;;;;;26.07;11.67;;;;;;;10.14;92.13;96055.28;5050988;28;20687;-60
2022/10/17 06:48:03;;;;;;;21.40;10.80;;;;;;;10.12;93.52;96025.78;5051213;28;20209;-61
2022/10/17 06:50:28;;;;;;;22.33;11.80;;;;;;;10.21;91.79;96050.66;5051425;28;20206;-60
2022/10/17 06:52:54;;;;;;;23.53;12.07;;;;;;;10.48;90.61;96068.50;5051246;28;20193;-61
2022/10/17 06:55:19;;;;;;;16.43;10.77;;;;;;;10.55;88.86;96087.53;5051381;28;20235;-61
2022/10/17 06:57:44;;;;;;;20.83;10.50;;;;;;;10.48;88.97;96087.13;5049960;28;20285;-63
2022/10/17 07:00:11;;;;;;;19.37;11.33;;;;;;;10.46;89.90;96067.78;5051304;28;20197;-62
2022/10/17 07:02:36;;;;;;;21.10;11.70;;;;;;;10.51;89.30;96068.28;5050495;28;20200;-63
2022/10/17 07:05:01;;;;;;;24.47;13.27;;;;;;;10.52;88.46;96075.03;5051067;28;20209;-61
2022/10/17 07:07:30;;;;;;;20.40;12.03;;;;;;;10.54;88.39;96075.75;5051078;28;20213;-61
2022/10/17 07:09:55;;;;;;;21.43;13.23;;;;;;;10.42;90.27;96041.75;5050869;28;20213;-59
2022/10/17 07:12:21;;;;;;;20.73;11.93;;;;;;;10.67;88.26;96079.16;5051090;28;20185;-61
2022/10/17 07:14:49;;;;;;;23.80;12.17;;;;;;;10.83;87.09;96105.25;5050846;28;20197;-60
2022/10/17 07:17:15;;;;;;;23.63;13.03;;;;;;;10.93;88.62;96076.59;5050716;28;20656;-60
2022/10/17 07:19:42;;;;;;;24.07;11.97;;;;;;;11.01;87.27;96093.13;5050929;28;20202;-61
2022/10/17 07:22:08;;;;;;;24.17;12.60;;;;;;;10.91;88.33;96080.97;5050723;28;20205;-62
2022/10/17 07:24:34;;;;;;;18.03;11.50;;;;;;;11.31;84.76;96142.88;5050663;28;20201;-61
2022/10/17 07:26:59;;;;;;;30.00;11.80;;;;;;;11.19;84.68;96136.03;5050496;28;20200;-62
2022/10/17 07:29:25;;;;;;;27.27;12.07;;;;;;;10.79;89.13;96050.41;5050734;28;20205;-62
2022/10/17 07:31:50;;;;;;;20.27;12.33;;;;;;;11.06;86.67;96093.66;5050933;28;20190;-61
2022/10/17 07:34:16;;;;;;;20.97;12.43;;;;;;;11.13;85.25;96128.00;5050706;28;20209;-57
2022/10/17 07:36:42;;;;;;;23.30;11.63;;;;;;;11.08;87.28;96095.19;5051072;28;20272;-60
2022/10/17 07:39:07;;;;;;;23.13;13.20;;;;;;;10.93;87.87;96075.78;5016396;28;20296;-60
2022/10/17 07:41:33;;;;;;;26.23;12.57;;;;;;;10.86;88.32;96059.28;5050558;28;20197;-61
2022/10/17 07:43:58;;;;;;;20.93;11.83;;;;;;;11.14;89.11;96048.16;5052534;28;20205;-58
2022/10/17 07:46:24;;;;;;;26.10;13.37;;;;;;;11.06;89.14;96051.19;5054521;28;20197;-58
2022/10/17 07:48:50;;;;;;;26.97;12.90;;;;;;;11.46;87.05;96100.34;5053691;28;20297;-57
2022/10/17 07:51:17;;;;;;;22.43;13.13;;;;;;;11.71;84.29;96147.09;5052907;28;20274;-59
2022/10/17 07:53:43;;;;;;;28.10;12.87;;;;;;;11.60;84.22;96135.94;5053552;28;20659;-62
2022/10/17 07:56:09;;;;;;;24.37;14.83;;;;;;;11.75;84.27;96143.44;5020328;28;20327;-61
2022/10/17 07:58:36;;;;;;;24.17;15.20;;;;;;;11.91;82.94;96162.81;5054099;28;20238;-61
2022/10/17 08:01:04;;;;;;;28.70;14.00;;;;;;;11.97;82.92;96158.13;5053837;28;20201;-61
2022/10/17 08:03:29;;;;;;;25.50;13.13;;;;;;;12.38;82.10;96168.13;5036524;28;20185;-59
2022/10/17 08:05:59;;;;;;;23.43;13.70;;;;;;;12.63;80.32;96189.31;5054468;28;20235;-60
2022/10/17 08:08:25;;;;;;;24.77;14.13;;;;;;;13.01;77.71;96235.16;5053707;28;20209;-61
2022/10/17 08:10:51;;;;;;;25.83;12.83;;;;;;;13.19;75.21;96262.00;5054378;28;20213;-61
2022/10/17 08:13:17;;;;;;;21.37;13.60;;;;;;;13.25;74.58;96258.25;5053856;28;20259;-59
2022/10/17 08:15:42;;;;;;;25.60;13.55;;;;;;;13.46;75.81;96224.31;5053859;28;20651;-58
2022/10/17 08:18:07;;;;;;;24.07;12.50;;;;;;;13.68;77.01;96198.03;5036226;28;20239;-58
2022/10/17 08:20:33;;;;;;;23.37;13.30;;;;;;;13.87;76.18;96223.09;5053725;28;20288;-60
2022/10/17 08:22:58;;;;;;;23.23;12.77;;;;;;;14.22;74.57;96246.94;5053463;28;20212;-62
2022/10/17 08:25:24;;;;;;;26.17;13.17;;;;;;;14.42;73.67;96245.47;5035836;28;20217;-61
2022/10/17 08:27:49;;;;;;;22.70;11.43;;;;;;;14.91;70.57;96313.38;5053718;28;20213;-58
2022/10/17 08:30:15;;;;;;;20.95;11.32;;;;;;;15.14;68.61;96343.19;5053892;28;20205;-62
2022/10/17 08:32:41;;;;;;;22.80;12.13;;;;;;;15.31;68.64;96311.16;5053557;28;20190;-58
2022/10/17 08:35:11;;;;;;;22.13;12.18;;;;;;;15.55;66.31;96362.31;5053451;28;20205;-57
2022/10/17 08:37:36;;;;;;;15.37;11.30;;;;;;;15.62;62.64;96438.66;5053325;28;20189;-62
2022/10/17 08:40:02;;;;;;;16.55;10.32;;;;;;;16.08;64.09;96369.19;5053369;28;20308;-61
2022/10/17 08:42:46;;;;;;;16.83;11.02;;;;;;;16.38;64.02;96371.88;5053203;28;20197;-62
2022/10/17 08:45:25;;;;;;;19.23;10.30;;;;;;;16.73;63.00;96393.00;5053311;28;20722;-60
2022/10/17 08:47:57;;;;;;;19.13;10.35;;;;;;;17.07;61.25;96437.31;5053390;28;20212;-62
2022/10/17 08:50:31;;;;;;;25.77;11.50;;;;;;;17.29;59.96;96444.09;5052998;28;20209;-61
2022/10/17 08:53:01;;;;;;;13.35;9.18;;;;;;;17.68;58.81;96469.09;5053423;28;20607;-61
2022/10/17 08:55:41;;;;;;;22.40;9.43;;;;;;;17.94;56.99;96506.31;5052705;28;20223;-63
2022/10/17 08:58:18;;;;;;;16.52;8.40;;;;;;;18.30;54.01;96571.94;5052109;28;20197;-60
2022/10/17 09:00:52;;;;;;;18.70;8.75;;;;;;;18.57;52.79;96574.75;5053192;28;20733;-62
2022/10/17 09:03:25;;;;;;;25.40;8.82;;;;;;;18.81;52.92;96536.56;5052793;28;20209;-63
2022/10/17 09:06:06;;;;;;;13.55;8.13;;;;;;;18.94;49.29;96631.69;5053112;28;20571;-62
2022/10/17 09:08:42;;;;;;;15.50;7.40;;;;;;;19.12;47.00;96694.56;5052781;28;20244;-62
2022/10/17 09:11:17;;;;;;;13.35;8.32;;;;;;;19.52;48.50;96628.25;5052896;28;20608;-58
2022/10/17 09:13:48;;;;;;;12.93;7.53;;;;;;;19.70;48.29;96615.47;5051344;28;20287;-58
2022/10/17 09:16:29;;;;;;;16.25;9.18;;;;;;;19.73;45.85;96698.63;5051565;28;20749;-57
2022/10/17 09:19:01;;;;;;;18.67;8.98;;;;;;;19.58;46.97;96630.28;5052499;28;20215;-61
2022/10/17 09:21:42;;;;;;;17.70;8.48;;;;;;;19.72;47.96;96588.56;5053033;28;20311;-59
2022/10/17 09:24:16;;;;;;;19.83;8.35;;;;;;;20.05;47.95;96582.94;5052769;28;20202;-63
2022/10/17 09:26:50;;;;;;;15.38;7.78;;;;;;;20.41;46.77;96630.44;5052726;28;20196;-61
2022/10/17 09:29:24;;;;;;;13.90;7.22;;;;;;;20.77;47.57;96589.97;5052371;28;20356;-58
2022/10/17 09:32:16;;;;;;;11.65;7.53;;;;;;;20.55;45.17;96665.31;5052606;28;20213;-62
2022/10/17 09:34:41;;;;;;;12.02;6.47;;;;;;;20.85;44.13;96691.75;5052567;28;20713;-60
2022/10/17 09:37:13;;;;;;;14.52;7.35;;;;;;;20.81;44.29;96676.66;5034797;28;20185;-60
2022/10/17 09:39:40;;;;;;;13.23;5.55;;;;;;;21.19;42.76;96733.41;5050941;28;20241;-60
2022/10/17 09:42:08;;;;;;;7.72;4.68;;;;;;;21.60;42.01;96745.84;5052537;28;20185;-61
2022/10/17 09:45:01;;;;;;;8.18;4.70;;;;;;;21.81;41.61;96763.75;5052195;28;20214;-61
2022/10/17 09:47:58;;;;;;;9.07;4.72;;;;;;;21.15;40.58;96773.47;5052197;28;20213;-62
2022/10/17 09:50:30;;;;;;;8.20;4.70;;;;;;;20.61;42.08;96701.78;5052413;28;20218;-58
2022/10/17 09:53:00;;;;;;;7.68;4.45;;;;;;;21.29;41.28;96734.16;5052363;28;20276;-58
2022/10/17 09:55:40;;;;;;;6.85;4.18;;;;;;;21.73;41.66;96707.44;5052014;28;20213;-62
2022/10/17 09:58:07;;;;;;;5.03;3.38;;;;;;;21.97;37.79;96874.47;5052281;28;20185;-60
2022/10/17 10:00:39;;;;;;;9.48;4.47;;;;;;;22.03;37.47;96822.06;5052168;28;20577;-57
2022/10/17 10:03:22;;;;;;;6.95;4.50;;;;;;;21.83;37.41;96797.25;5051946;28;20197;-58
2022/10/17 10:06:11;;;;;;;5.85;4.13;;;;;;;21.92;38.32;96742.00;5016827;28;20310;-59
2022/10/17 10:08:54;;;;;;;6.97;3.58;;;;;;;21.73;36.30;96833.56;5051779;28;20201;-59
2022/10/17 10:11:45;;;;;;;7.07;3.65;;;;;;;21.38;36.85;96773.91;5051911;28;20205;-58
2022/10/17 10:14:22;;;;;;;5.57;3.15;;;;;;;21.02;37.22;96739.34;5042209;28;20596;-62
2022/10/17 10:16:48;;;;;;;4.68;3.10;;;;;;;21.57;37.25;96740.94;5051700;28;20189;-60
2022/10/17 10:19:26;;;;;;;5.07;3.30;;;;;;;21.88;36.19;96782.06;5051468;28;20198;-62
2022/10/17 10:21:58;;;;;;;3.83;2.95;;;;;;;22.22;36.60;96754.56;5051866;28;20205;-62
2022/10/17 10:24:25;;;;;;;5.78;2.75;;;;;;;22.41;35.37;96795.84;5051674;28;20211;-58
2022/10/17 10:26:54;;;;;;;5.45;2.78;;;;;;;22.76;34.50;96834.75;5052245;28;20185;-58
2022/10/17 10:29:19;;;;;;;5.38;3.28;;;;;;;22.97;33.40;96871.53;5051183;28;20206;-58
2022/10/17 10:31:46;;;;;;;4.13;2.80;;;;;;;23.12;33.65;96792.16;5051419;28;20208;-59
2022/10/17 10:34:25;;;;;;;4.53;3.15;;;;;;;23.30;33.43;96807.66;5051387;28;20208;-61
2022/10/17 10:36:56;;;;;;;7.35;2.55;;;;;;;23.30;33.66;96771.28;5051590;28;20204;-61
2022/10/17 10:39:41;;;;;;;5.32;3.03;;;;;;;23.45;33.90;96740.38;5051160;28;20209;-61
2022/10/17 10:42:27;;;;;;;3.50;3.03;;;;;;;22.73;32.04;96822.06;5051127;28;20235;-61
2022/10/17 10:44:56;;;;;;;3.65;2.90;;;;;;;22.53;32.60;96776.50;5051103;28;20203;-60
2022/10/17 10:47:28;;;;;;;4.05;2.28;;;;;;;22.97;33.21;96752.16;5051044;28;20209;-61
2022/10/17 10:50:22;;;;;;;6.32;2.60;;;;;;;23.37;32.60;96766.31;5051246;28;20197;-60
2022/10/17 10:53:13;;;;;;;5.60;3.20;;;;;;;23.63;32.90;96759.28;5051416;28;20242;-60
2022/10/17 10:56:14;;;;;;;3.92;2.63;;;;;;;23.73;32.59;96733.97;5015310;28;20233;-61
2022/10/17 10:59:02;;;;;;;4.15;2.60;;;;;;;23.90;32.08;96756.38;5047124;28;20205;-60
2022/10/17 11:01:40;;;;;;;3.72;2.70;;;;;;;23.72;30.90;96792.06;5051207;28;20181;-61
2022/10/17 11:04:08;;;;;;;3.92;2.78;;;;;;;22.84;31.33;96731.03;5051236;28;20697;-60
2022/10/17 11:06:38;;;;;;;4.30;2.72;;;;;;;22.82;31.54;96725.19;5051807;28;20186;-61
2022/10/17 11:09:23;;;;;;;3.35;2.60;;;;;;;22.76;30.86;96754.31;5051076;28;20735;-61
2022/10/17 11:11:57;;;;;;;3.38;2.47;;;;;;;21.35;31.67;96702.53;5051355;28;20252;-60
2022/10/17 11:14:31;;;;;;;3.47;2.13;;;;;;;21.01;31.89;96678.19;5050798;28;20204;-61
2022/10/17 11:17:11;;;;;;;3.30;2.50;;;;;;;20.93;31.81;96675.50;5050765;28;20197;-61
2022/10/17 11:20:03;;;;;;;2.90;2.42;;;;;;;21.09;32.00;96667.16;5050083;28;20200;-60
2022/10/17 11:22:48;;;;;;;7.38;3.10;;;;;;;21.74;32.95;96605.50;5039977;28;20289;-61
2022/10/17 11:25:39;;;;;;;6.38;3.05;;;;;;;22.15;33.41;96592.84;5050783;28;20210;-62
2022/10/17 11:28:15;;;;;;;9.32;3.40;;;;;;;22.32;33.27;96610.13;5050839;28;20804;-61
2022/10/17 11:30:49;;;;;;;8.90;3.28;;;;;;;22.20;32.94;96622.50;5050594;28;20267;-61
2022/10/17 11:33:21;;;;;;;4.38;2.50;;;;;;;22.25;32.22;96651.41;5050564;28;20251;-60
2022/10/17 11:35:50;;;;;;;3.17;2.75;;;;;;;22.16;31.13;96682.59;5051140;28;20217;-61
2022/10/17 11:38:31;;;;;;;3.78;2.60;;;;;;;21.91;31.90;96640.16;5032795;28;20178;-61
2022/10/17 11:40:58;;;;;;;13.25;2.88;;;;;;;22.22;31.54;96650.91;5050569;28;20663;-61
2022/10/17 11:43:33;;;;;;;4.80;2.42;;;;;;;22.37;31.70;96645.00;5050496;28;20181;-61
2022/10/17 11:46:11;;;;;;;6.72;3.65;;;;;;;22.07;31.94;96632.50;5050606;28;20262;-57